Flight Track Log - Related Links

Times and Time Zones

All times are in EDT time to prevent confusion due to time zone crossing. See the ASH3738 flight status page for this flight to view local times or setup timezone preferences in your user account.

Time Position Orientation Groundspeed Altitude Reporting Facility
EDT Latitude Longitude Course Direction KTS MPH feet Rate Location/Type
Wed 12:07:36 PM 35.3686 -97.6122 164° South 154 177 2,000  Level Fort Worth Center
Wed 12:08:37 PM 35.3247 -97.5967 164° South 193 222 3,900 1,781 Climbing Fort Worth Center
Wed 12:09:44 PM 35.3542 -97.5053 68° East 311 358 5,800 2,193 Climbing Fort Worth Center
Wed 12:11:54 PM 35.4431 -97.3242 59° Northeast 296 341 11,100 2,219 Climbing Kansas City Center
Wed 12:12:56 PM 35.4900 -97.2297 59° Northeast 313 360 12,900 1,839 Climbing Kansas City Center
Wed 12:13:58 PM 35.5533 -97.1039 58° Northeast 352 405 14,900 1,839 Climbing Kansas City Center
Wed 12:15:00 PM 35.6092 -96.9919 58° Northeast 377 434 16,700 1,839 Climbing Kansas City Center
Wed 12:16:02 PM 35.6656 -96.8775 59° Northeast 389 448 18,700 1,935 Climbing Kansas City Center
Wed 12:17:04 PM 35.7222 -96.7625 59° Northeast 393 452 20,700 1,951 Climbing Kansas City Center
Wed 12:18:05 PM 35.7789 -96.6472 59° Northeast 394 453 22,700 1,707 Climbing Kansas City Center
Wed 12:19:07 PM 35.8353 -96.5319 59° Northeast 394 453 24,200 1,452 Climbing Kansas City Center
Wed 12:20:09 PM 35.9036 -96.3906 59° Northeast 407 468 25,700 1,306 Climbing Kansas City Center
Wed 12:21:11 PM 35.9633 -96.2689 59° Northeast 414 476 26,900 1,161 Climbing Kansas City Center
Wed 12:22:13 PM 36.0244 -96.1425 59° Northeast 423 487 28,100 1,161 Climbing Kansas City Center
Wed 12:23:15 PM 36.0861 -96.0167 59° Northeast 428 493 29,300 1,113 Climbing Kansas City Center
Wed 12:24:17 PM 36.1483 -95.8892 59° Northeast 431 496 30,400 1,024 Climbing Kansas City Center
Wed 12:25:18 PM 36.2050 -95.7583 62° Northeast 432 497 31,400 976 Climbing Kansas City Center
Wed 12:26:20 PM 36.2472 -95.6133 70° East 438 504 32,400 1,113 Climbing Kansas City Center
Wed 12:27:22 PM 36.2972 -95.4444 70° East 437 503 33,700 1,113 Climbing Kansas City Center
Wed 12:28:24 PM 36.3381 -95.3039 70° East 436 502 34,700 968 Climbing Kansas City Center
Wed 12:29:26 PM 36.3786 -95.1644 70° East 432 497 35,700 634 Climbing Kansas City Center
Wed 12:30:27 PM 36.4219 -95.0114 71° East 427 491 36,000 146 Climbing Kansas City Center
Wed 12:31:29 PM 36.4628 -94.8669 71° East 437 503 36,000  Level Kansas City Center
Wed 12:32:31 PM 36.5061 -94.7139 71° East 459 528 36,000  Level Kansas City Center
Wed 12:33:33 PM 36.5489 -94.5639 70° East 463 533 36,000  Level Kansas City Center
Wed 12:34:35 PM 36.5911 -94.4167 70° East 457 526 36,000  Level Kansas City Center
Wed 12:35:37 PM 36.6319 -94.2681 71° East 453 521 36,000  Level Kansas City Center
Wed 12:36:39 PM 36.6742 -94.1136 71° East 465 535 36,000  Level Kansas City Center
Wed 12:37:40 PM 36.7269 -93.9278 70° East 472 543 36,000  Level Kansas City Center
Wed 12:38:42 PM 36.7703 -93.7697 71° East 473 544 36,000  Level Kansas City Center
Wed 12:39:44 PM 36.8136 -93.6156 71° East 471 542 36,000 288 Level Kansas City Center
Wed 12:40:47 PM 36.8544 -93.4619 72° East 467 537 36,600 484 Climbing Kansas City Center
Wed 12:41:48 PM 36.8994 -93.2958 71° East 461 531 37,000 195 Climbing Kansas City Center
Wed 12:42:50 PM 36.9406 -93.1447 71° East 460 529 37,000  Level Kansas City Center
Wed 12:43:52 PM 36.9797 -92.9958 72° East 456 525 37,000  Level Kansas City Center
Wed 12:44:54 PM 37.0178 -92.8511 72° East 446 513 37,000  Level Kansas City Center
Wed 12:45:56 PM 37.0556 -92.7081 72° East 438 504 37,000  Level Kansas City Center
Wed 12:46:58 PM 37.0933 -92.5628 72° East 438 504 37,000  Level Kansas City Center
Wed 12:48:00 PM 37.1397 -92.3825 72° East 449 517 37,000  Level Kansas City Center
Wed 12:49:02 PM 37.1783 -92.2317 72° East 454 522 37,000  Level Kansas City Center
Wed 12:50:04 PM 37.2175 -92.0825 72° East 454 522 37,000  Level Kansas City Center
Wed 12:51:06 PM 37.2553 -91.9344 72° East 450 518 37,000  Level Kansas City Center
Wed 12:52:08 PM 37.2931 -91.7847 72° East 451 519 37,000  Level Kansas City Center
Wed 12:53:10 PM 37.3317 -91.6339 72° East 454 522 37,000  Level Kansas City Center
Wed 12:54:11 PM 37.3769 -91.4536 72° East 453 521 37,000  Level Kansas City Center
Wed 12:55:13 PM 37.4147 -91.3039 72° East 451 519 37,000  Level Kansas City Center
Wed 12:56:15 PM 37.4525 -91.1531 72° East 452 520 37,000  Level Kansas City Center
Wed 12:57:17 PM 37.4903 -91.0014 73° East 453 521 37,000  Level Kansas City Center
Wed 12:58:19 PM 37.5269 -90.8508 73° East 452 520 37,000  Level Kansas City Center
Wed 12:59:21 PM 37.5631 -90.6997 73° East 450 518 37,000  Level Kansas City Center
Wed 01:00:23 PM 37.5997 -90.5489 73° East 450 518 37,000  Level Kansas City Center
Wed 01:01:25 PM 37.6414 -90.3703 74° East 449 517 37,000  Level Kansas City Center
Wed 01:02:27 PM 37.6736 -90.2214 75° East 447 514 37,000  Level Kansas City Center
Wed 01:03:29 PM 37.6922 -90.0650 81° East 452 520 37,000  Level Kansas City Center
Wed 01:04:31 PM 37.7103 -89.9083 82° East 454 522 37,000  Level Kansas City Center
Wed 01:05:33 PM 37.7278 -89.7519 82° East 454 522 37,000  Level Kansas City Center
Wed 01:06:35 PM 37.7439 -89.5964 82° East 452 520 37,000  Level Kansas City Center
Wed 01:07:37 PM 37.7622 -89.4119 83° East 448 516 37,000  Level Kansas City Center
Wed 01:08:39 PM 37.7800 -89.2581 82° East 445 512 37,000  Level Kansas City Center
Wed 01:09:41 PM 37.7961 -89.1067 82° East 440 506 37,000  Level Kansas City Center
Wed 01:10:43 PM 37.8111 -88.9514 83° East 441 507 37,000  Level Kansas City Center
Wed 01:11:45 PM 37.8244 -88.7983 84° East 443 510 37,000  Level Kansas City Center
Wed 01:12:47 PM 37.8469 -88.6164 81° East 445 512 37,000  Level Kansas City Center
Wed 01:13:49 PM 37.8628 -88.4569 83° East 451 519 37,000  Level Kansas City Center
Wed 01:14:51 PM 37.8783 -88.2958 83° East 458 527 37,000  Level Kansas City Center
Wed 01:15:53 PM 37.8933 -88.1372 83° East 455 524 37,000  Level Kansas City Center
Wed 01:16:55 PM 37.9078 -87.9792 83° East 453 521 37,000  Level Kansas City Center
Wed 01:17:57 PM 37.9264 -87.7939 83° East 445 512 37,000  Level Kansas City Center
Wed 01:18:19 PM 37.9286 -87.7633 85° East 444 511 37,000  Level Indianapolis Center
Wed 01:19:20 PM 37.9425 -87.6081 83° East 445 512 37,000  Level Indianapolis Center
Wed 01:20:22 PM 37.9586 -87.4233 84° East 442 509 37,000  Level Indianapolis Center
Wed 01:21:24 PM 37.9717 -87.2678 84° East 445 512 37,000  Level Indianapolis Center
Wed 01:22:26 PM 37.9847 -87.1131 84° East 445 512 37,000  Level Indianapolis Center
Wed 01:23:28 PM 37.9981 -86.9575 84° East 447 514 37,000  Level Indianapolis Center
Wed 01:24:30 PM 38.0106 -86.7994 84° East 453 521 37,000  Level Indianapolis Center
Wed 01:25:32 PM 38.0269 -86.6078 84° East 458 527 37,000  Level Indianapolis Center
Wed 01:26:33 PM 38.0394 -86.4467 84° East 459 528 37,000  Level Indianapolis Center
Wed 01:27:35 PM 38.0519 -86.2861 84° East 459 528 37,000  Level Indianapolis Center
Wed 01:28:37 PM 38.0639 -86.1244 85° East 460 529 37,000  Level Indianapolis Center
Wed 01:29:39 PM 38.0761 -85.9664 84° East 453 521 37,000  Level Indianapolis Center
Wed 01:30:41 PM 38.0869 -85.8139 85° East 435 501 37,000  Level Indianapolis Center
Wed 01:31:42 PM 38.0972 -85.6650 85° East 424 488 37,000  Level Indianapolis Center
Wed 01:32:44 PM 38.1089 -85.5158 84° East 424 488 37,000  Level Indianapolis Center
Wed 01:33:46 PM 38.1239 -85.3308 84° East 438 504 37,000  Level Indianapolis Center
Wed 01:34:48 PM 38.1378 -85.1678 84° East 455 524 37,000  Level Indianapolis Center
Wed 01:35:50 PM 38.1494 -85.0072 85° East 457 526 37,000  Level Indianapolis Center
Wed 01:36:51 PM 38.1628 -84.8456 84° East 460 529 37,000  Level Indianapolis Center
Wed 01:37:53 PM 38.1750 -84.6847 84° East 458 527 37,000  Level Indianapolis Center
Wed 01:38:55 PM 38.1869 -84.5239 85° East 457 526 37,000  Level Indianapolis Center
Wed 01:39:57 PM 38.1994 -84.3375 85° East 454 522 37,000  Level Indianapolis Center
Wed 01:40:58 PM 38.2111 -84.1775 85° East 453 521 37,000  Level Indianapolis Center
Wed 01:42:00 PM 38.2217 -84.0189 85° East 451 519 37,000  Level Indianapolis Center
Wed 01:43:02 PM 38.2319 -83.8622 85° East 447 514 37,000  Level Indianapolis Center
Wed 01:44:04 PM 38.2417 -83.7050 85° East 445 512 37,000  Level Indianapolis Center
Wed 01:45:05 PM 38.2511 -83.5486 86° East 444 511 37,000  Level Indianapolis Center
Wed 01:46:07 PM 38.2617 -83.3903 85° East 447 514 37,000  Level Indianapolis Center
Wed 01:47:09 PM 38.2725 -83.2064 86° East 445 512 37,000  Level Indianapolis Center
Wed 01:48:11 PM 38.2817 -83.0478 86° East 447 514 37,000 -49 Level Indianapolis Center
Wed 01:49:12 PM 38.2906 -82.8900 86° East 446 513 36,900 -390 Descending Indianapolis Center
Wed 01:50:14 PM 38.2992 -82.7283 86° East 452 520 36,200 -435 Descending Indianapolis Center
Wed 01:51:16 PM 38.3078 -82.5711 86° East 447 514 36,000 -98 Descending Indianapolis Center
Wed 01:52:17 PM 38.3167 -82.4097 86° East 450 518 36,000  Level Indianapolis Center
Wed 01:53:19 PM 38.3261 -82.2458 86° East 463 533 36,000  Level Indianapolis Center
Wed 01:54:21 PM 38.3367 -82.0822 85° East 466 536 36,000  Level Indianapolis Center
Wed 01:55:23 PM 38.3444 -81.9178 86° East 468 539 36,000 -634 Level Indianapolis Center
Wed 01:56:24 PM 38.3483 -81.7194 89° East 473 544 34,700 -1,317 Descending Indianapolis Center
Wed 01:57:26 PM 38.3433 -81.5569 92° East 468 539 33,300 -823 Descending Indianapolis Center
Wed 01:58:28 PM 38.3381 -81.4008 92° East 453 521 33,000 -145 Descending Indianapolis Center
Wed 01:59:30 PM 38.3328 -81.2417 92° East 453 521 33,000  Level Indianapolis Center
Wed 02:00:31 PM 38.3267 -81.0742 93° East 473 544 33,000  Level Indianapolis Center
Wed 02:01:05 PM 38.3233 -80.9806 93° East 456 525 33,000  Level Washington Center
Wed 02:02:05 PM 38.3169 -80.7947 92° East 471 542 33,000  Level Washington Center
Wed 02:03:06 PM 38.3281 -80.6342 85° East 473 544 33,000  Level Washington Center
Wed 02:04:06 PM 38.3575 -80.4744 77° East 466 536 33,000 -198 Level Washington Center
Wed 02:05:07 PM 38.3825 -80.3172 78° East 460 529 32,600 -850 Descending Washington Center
Wed 02:06:06 PM 38.4092 -80.1706 77° East 460 529 31,300 -1,261 Descending Washington Center
Wed 02:07:06 PM 38.4336 -80.0156 79° East 460 529 30,100 -744 Descending Washington Center
Wed 02:08:07 PM 38.4603 -79.8608 78° East 454 522 29,800 -793 Descending Washington Center
Wed 02:09:07 PM 38.4842 -79.7108 78° East 441 507 28,500 -1,475 Descending Washington Center
Wed 02:10:05 PM 38.5081 -79.5611 78° East 434 499 26,900 -2,168 Descending Washington Center
Wed 02:11:06 PM 38.5317 -79.4083 79° East 416 479 24,200 -1,736 Descending Washington Center
Wed 02:12:06 PM 38.5525 -79.2767 79° East 391 450 23,400 -1,100 Descending Washington Center
Wed 02:13:06 PM 38.5733 -79.1394 79° East 384 442 22,000 -1,462 Descending Washington Center
Wed 02:14:05 PM 38.5958 -79.0131 77° East 379 436 20,500 -1,664 Descending Washington Center
Wed 02:15:05 PM 38.6161 -78.8864 78° East 368 423 18,700 -1,736 Descending Washington Center
Wed 02:16:06 PM 38.6400 -78.7681 75° East 357 411 17,000 -1,770 Descending Washington Center
Wed 02:17:07 PM 38.6681 -78.6522 73° East 345 397 15,100 -1,869 Descending Washington Center
Wed 02:18:08 PM 38.6939 -78.5414 73° East 334 384 13,200 -1,866 Descending Washington Center
Wed 02:19:06 PM 38.7233 -78.4417 69° East 314 361 11,400 -1,525 Descending Washington Center
Wed 02:20:06 PM 38.7831 -78.3800 39° Northeast 284 327 10,200 -1,240 Descending Washington Center
Wed 02:21:07 PM 38.8450 -78.3131 40° Northeast 277 319 8,900 -1,261 Descending Washington Center
Wed 02:22:05 PM 38.9008 -78.2431 44° Northeast 277 319 7,700 -1,210 Descending Washington Center
Wed 02:23:06 PM 38.9506 -78.1647 51° Northeast 277 319 6,500 -1,190 Descending Washington Center
Wed 02:24:06 PM 39.0000 -78.0917 49° Northeast 277 319 5,300 -738 Descending Washington Center
Wed 02:25:08 PM 39.0494 -78.0239 47° Northeast 266 306 5,000 -151 Descending Washington Center
Wed 02:26:05 PM 39.1069 -77.9617 40° Northeast 261 300 5,000  Level Washington Center
Wed 02:27:06 PM 39.1581 -77.9069 40° Northeast 261 300 5,000 -189 Level Washington Center
Wed 02:28:44 PM 39.1833 -77.7500 78° East 258 297 4,500 -494 Descending Potomac TRACON
Wed 02:29:44 PM 39.1833 -77.6667 90° East 252 290 3,700 -709 Descending Potomac TRACON
Wed 02:30:51 PM 39.1667 -77.5667 102° East 255 293 3,000 -347 Descending Potomac TRACON
Wed 02:31:45 PM 39.1167 -77.5167 142° Southeast 239 275 3,000 -474 Level Potomac TRACON
Wed 02:32:45 PM 39.0667 -77.4833 153° Southeast 220 253 2,100 -843 Descending Potomac TRACON
Wed 02:33:46 PM 39.0167 -77.4667 165° South 151 174 1,300 -793 Descending Potomac TRACON
Wed 02:34:46 PM 38.9833 -77.4667 180° South 139 160 500 -800 Descending Potomac TRACON
Wed 02:36:00 PM 38.9474 -77.4599 159° South  Level Estimated
Wed 02:43:00 PM 38.9474 -77.4599 159° South  Level Estimated
Wed 02:44:00 PM 38.9474 -77.4599 159° South  Level Estimated

Login

Don't have an account? Register now (free) for customized features, flight alerts, and more!